createdAt,value
2018-10-21T00:01:32.000Z,45.53
2018-10-21T00:03:59.483Z,46.20
2018-10-21T00:06:26.863Z,44.73
2018-10-21T00:08:54.315Z,41.67
2018-10-21T00:11:21.776Z,43.57
2018-10-21T00:13:49.213Z,42.27
2018-10-21T00:16:16.657Z,39.60
2018-10-21T00:18:43.994Z,40.07
2018-10-21T00:21:11.494Z,40.40
2018-10-21T00:23:38.868Z,41.07
2018-10-21T00:26:06.330Z,39.17
2018-10-21T00:28:33.764Z,38.23
2018-10-21T00:31:01.180Z,37.17
2018-10-21T00:33:28.610Z,37.63
2018-10-21T00:35:56.038Z,36.33
2018-10-21T00:38:23.420Z,33.30
2018-10-21T00:40:50.852Z,35.60
2018-10-21T00:43:18.312Z,37.13
2018-10-21T00:45:45.762Z,38.00
2018-10-21T00:48:13.141Z,39.17
2018-10-21T00:50:40.584Z,40.50
2018-10-21T00:53:07.913Z,39.90
2018-10-21T00:55:35.393Z,38.80
2018-10-21T00:58:02.829Z,41.13
2018-10-21T01:00:30.309Z,37.97
2018-10-21T01:02:58.063Z,37.83
2018-10-21T01:05:25.466Z,34.83
2018-10-21T01:07:52.887Z,36.20
2018-10-21T01:10:20.269Z,35.60
2018-10-21T01:12:47.721Z,34.93
2018-10-21T01:15:15.213Z,34.67
2018-10-21T01:17:42.572Z,43.08
2018-10-21T01:20:11.461Z,39.17
2018-10-21T01:22:39.458Z,37.10
2018-10-21T01:25:07.652Z,37.80
2018-10-21T01:27:35.121Z,40.43
2018-10-21T01:30:02.568Z,40.23
2018-10-21T01:32:30.022Z,37.27
2018-10-21T01:34:57.439Z,35.67
2018-10-21T01:37:24.852Z,35.00
2018-10-21T01:40:56.685Z,34.20
2018-10-21T01:43:29.383Z,33.73
2018-10-21T01:45:57.109Z,36.90
2018-10-21T01:48:25.723Z,34.80
2018-10-21T01:50:53.096Z,33.10
2018-10-21T01:53:21.063Z,32.00
2018-10-21T01:55:48.593Z,30.10
2018-10-21T01:58:16.041Z,31.67
2018-10-21T02:00:43.738Z,34.00
2018-10-21T02:03:11.279Z,33.93
2018-10-21T02:05:39.304Z,34.87
2018-10-21T02:08:06.725Z,33.60
2018-10-21T02:10:34.149Z,33.20
2018-10-21T02:13:01.601Z,31.20
2018-10-21T02:15:29.031Z,30.80
2018-10-21T02:17:56.473Z,29.07
2018-10-21T02:20:24.380Z,30.37
2018-10-21T02:22:52.191Z,30.50
2018-10-21T02:25:19.614Z,30.10
2018-10-21T02:27:47.906Z,29.43
2018-10-21T02:30:17.716Z,30.63
2018-10-21T02:32:45.864Z,28.73
2018-10-21T02:35:13.993Z,28.57
2018-10-21T02:37:41.714Z,28.70
2018-10-21T02:41:25.885Z,30.10
2018-10-21T02:43:53.391Z,37.23
2018-10-21T02:46:21.781Z,33.10
2018-10-21T02:48:49.812Z,31.43
2018-10-21T02:51:17.291Z,32.53
2018-10-21T02:53:44.619Z,29.20
2018-10-21T02:56:12.095Z,30.90
2018-10-21T02:58:40.249Z,29.70
2018-10-21T03:01:08.005Z,29.57
2018-10-21T03:03:35.458Z,30.73
2018-10-21T03:06:03.228Z,31.57
2018-10-21T03:08:30.640Z,30.10
2018-10-21T03:10:58.427Z,31.03
2018-10-21T03:13:25.864Z,28.23
2018-10-21T03:15:53.329Z,28.93
2018-10-21T03:18:20.784Z,31.00
2018-10-21T03:20:48.116Z,29.03
2018-10-21T03:23:15.535Z,27.13
2018-10-21T03:25:43.444Z,27.10
2018-10-21T03:28:10.906Z,26.03
2018-10-21T03:30:38.283Z,27.50
2018-10-21T03:33:05.976Z,26.87
2018-10-21T03:35:33.436Z,28.83
2018-10-21T03:38:00.837Z,28.10
2018-10-21T03:40:28.248Z,27.73
2018-10-21T03:42:55.638Z,29.10
2018-10-21T03:45:32.040Z,28.80
2018-10-21T03:47:59.455Z,27.23
2018-10-21T03:50:27.460Z,27.60
2018-10-21T03:52:54.994Z,27.73
2018-10-21T03:55:22.639Z,27.13
2018-10-21T03:57:50.005Z,28.20
2018-10-21T04:00:17.480Z,26.10
2018-10-21T04:02:44.902Z,27.43
2018-10-21T04:05:12.594Z,25.67
2018-10-21T04:07:40.356Z,26.60
2018-10-21T04:10:07.822Z,25.10
2018-10-21T04:12:35.198Z,27.13
2018-10-21T04:15:02.656Z,26.03
2018-10-21T04:17:30.040Z,25.70
2018-10-21T04:19:57.453Z,24.63
2018-10-21T04:22:25.137Z,23.53
2018-10-21T04:24:52.520Z,24.43
2018-10-21T04:27:19.949Z,24.43
2018-10-21T04:29:47.606Z,25.77
2018-10-21T04:32:15.102Z,25.37
2018-10-21T04:34:42.549Z,24.13
2018-10-21T04:37:21.226Z,23.03
2018-10-21T04:40:03.038Z,23.00
2018-10-21T04:42:30.580Z,25.67
2018-10-21T04:44:58.160Z,25.40
2018-10-21T04:47:25.610Z,23.83
2018-10-21T04:49:53.004Z,25.30
2018-10-21T04:52:20.720Z,26.40
2018-10-21T04:54:48.080Z,25.97
2018-10-21T04:57:15.515Z,26.83
2018-10-21T04:59:42.911Z,26.37
2018-10-21T05:02:10.347Z,26.00
2018-10-21T05:04:37.756Z,24.50
2018-10-21T05:07:05.260Z,26.00
2018-10-21T05:09:32.627Z,24.90
2018-10-21T05:12:00.065Z,24.83
2018-10-21T05:14:27.484Z,22.87
2018-10-21T05:16:54.873Z,23.10
2018-10-21T05:19:22.273Z,23.90
2018-10-21T05:21:49.841Z,23.60
2018-10-21T05:24:17.252Z,24.07
2018-10-21T05:26:44.647Z,25.07
2018-10-21T05:29:12.151Z,24.67
2018-10-21T05:31:39.560Z,25.00
2018-10-21T05:34:07.190Z,23.70
2018-10-21T05:36:34.660Z,24.70
2018-10-21T05:39:02.143Z,24.50
2018-10-21T05:41:29.555Z,23.63
2018-10-21T05:43:57.019Z,23.60
2018-10-21T05:46:35.791Z,25.27
2018-10-21T05:49:03.192Z,25.27
2018-10-21T05:51:30.576Z,25.40
2018-10-21T05:53:58.023Z,26.47
2018-10-21T05:56:25.473Z,26.30
2018-10-21T05:58:52.876Z,26.00
2018-10-21T06:01:20.281Z,25.57
2018-10-21T06:03:47.682Z,25.87
2018-10-21T06:06:15.156Z,26.60
2018-10-21T06:08:42.546Z,28.73
2018-10-21T06:11:09.962Z,28.03
2018-10-21T06:13:37.353Z,30.20
2018-10-21T06:16:04.927Z,26.80
2018-10-21T06:18:32.286Z,28.23
2018-10-21T06:21:01.858Z,26.80
2018-10-21T06:23:29.238Z,33.80
2018-10-21T06:25:56.677Z,29.70
2018-10-21T06:28:24.102Z,24.87
2018-10-21T06:30:51.497Z,26.27
2018-10-21T06:33:18.911Z,25.97
2018-10-21T06:35:46.337Z,26.93
2018-10-21T06:38:13.705Z,26.47
2018-10-21T06:40:41.122Z,31.43
2018-10-21T06:43:08.572Z,28.33
2018-10-21T06:45:36.028Z,28.60
2018-10-21T06:48:03.674Z,29.50
2018-10-21T06:50:31.078Z,28.27
2018-10-21T06:52:58.678Z,27.17
2018-10-21T06:55:26.091Z,26.67
2018-10-21T06:57:53.607Z,26.87
2018-10-21T07:00:20.921Z,28.00
2018-10-21T07:02:48.401Z,27.00
2018-10-21T07:05:27.116Z,33.33
2018-10-21T07:07:54.557Z,29.90
2018-10-21T07:10:21.953Z,25.50
2018-10-21T07:12:49.526Z,23.43
2018-10-21T07:15:17.290Z,23.47
2018-10-21T07:17:44.971Z,24.83
2018-10-21T07:20:12.473Z,26.80
2018-10-21T07:22:40.488Z,28.53
2018-10-21T07:25:08.662Z,31.30
2018-10-21T07:27:36.091Z,37.33
2018-10-21T07:30:03.773Z,36.80
2018-10-21T07:32:31.191Z,34.87
2018-10-21T07:34:58.628Z,31.13
2018-10-21T07:37:26.022Z,28.83
2018-10-21T07:39:53.453Z,25.33
2018-10-21T07:42:20.923Z,24.00
2018-10-21T07:44:48.418Z,22.80
2018-10-21T07:47:15.849Z,21.13
2018-10-21T07:49:43.238Z,21.30
2018-10-21T07:52:10.657Z,22.07
2018-10-21T07:54:38.093Z,21.37
2018-10-21T07:57:05.508Z,22.67
2018-10-21T07:59:32.982Z,22.20
2018-10-21T08:02:00.480Z,22.47
2018-10-21T08:04:27.887Z,22.27
2018-10-21T08:07:06.509Z,22.47
2018-10-21T08:09:33.933Z,22.60
2018-10-21T08:12:01.385Z,20.90
2018-10-21T08:14:28.796Z,22.70
2018-10-21T08:16:56.244Z,22.13
2018-10-21T08:19:23.648Z,22.47
2018-10-21T08:21:51.177Z,20.97
2018-10-21T08:24:18.604Z,21.70
2018-10-21T08:26:46.131Z,21.43
2018-10-21T08:29:13.555Z,22.27
2018-10-21T08:31:41.034Z,20.80
2018-10-21T08:34:08.543Z,22.03
2018-10-21T08:36:36.002Z,20.50
2018-10-21T08:39:04.755Z,20.70
2018-10-21T08:41:32.233Z,19.23
2018-10-21T08:43:59.750Z,19.57
2018-10-21T08:46:27.354Z,19.43
2018-10-21T08:48:54.682Z,19.70
2018-10-21T08:51:22.123Z,18.93
2018-10-21T08:53:49.589Z,19.10
2018-10-21T08:56:17.022Z,18.97
2018-10-21T08:58:44.506Z,19.47
2018-10-21T09:01:12.038Z,18.03
2018-10-21T09:03:39.479Z,19.10
2018-10-21T09:06:06.902Z,19.33
2018-10-21T09:08:34.347Z,19.20
2018-10-21T09:11:01.849Z,19.50
2018-10-21T09:13:29.232Z,18.10
2018-10-21T09:15:56.633Z,19.30
2018-10-21T09:18:24.123Z,18.77
2018-10-21T09:20:51.526Z,18.30
2018-10-21T09:23:18.964Z,21.33
2018-10-21T09:25:46.367Z,18.50
2018-10-21T09:28:13.858Z,19.27
2018-10-21T09:30:41.210Z,18.77
2018-10-21T09:33:08.638Z,17.17
2018-10-21T09:35:36.101Z,17.50
2018-10-21T09:38:03.568Z,18.17
2018-10-21T09:40:31.061Z,17.53
2018-10-21T09:42:58.554Z,16.13
2018-10-21T09:45:26.083Z,15.17
2018-10-21T09:47:53.509Z,15.80
2018-10-21T09:50:20.991Z,13.73
2018-10-21T09:52:48.405Z,14.60
2018-10-21T09:55:17.745Z,14.07
2018-10-21T09:57:45.947Z,15.10
2018-10-21T10:00:17.972Z,13.13
2018-10-21T10:02:51.147Z,14.47
2018-10-21T10:05:18.655Z,13.97
2018-10-21T10:07:46.052Z,13.13
2018-10-21T10:10:13.645Z,14.73
2018-10-21T10:12:40.990Z,14.13
2018-10-21T10:15:08.858Z,14.87
2018-10-21T10:17:36.367Z,16.10
2018-10-21T10:20:04.894Z,14.90
2018-10-21T10:22:32.384Z,16.10
2018-10-21T10:24:59.886Z,15.87
2018-10-21T10:27:27.449Z,13.40
2018-10-21T10:29:54.849Z,14.10
2018-10-21T10:32:22.293Z,15.43
2018-10-21T10:34:49.683Z,14.57
2018-10-21T10:37:17.255Z,13.43
2018-10-21T10:39:44.592Z,13.40
2018-10-21T10:42:12.062Z,13.00
2018-10-21T10:44:39.504Z,13.13
2018-10-21T10:47:06.985Z,13.60
2018-10-21T10:49:34.429Z,12.50
2018-10-21T10:52:01.958Z,11.47
2018-10-21T10:54:29.409Z,11.47
2018-10-21T10:56:56.849Z,11.60
2018-10-21T10:59:24.316Z,11.03
2018-10-21T11:01:51.773Z,9.90
2018-10-21T11:04:19.346Z,11.27
2018-10-21T11:06:46.705Z,11.10
2018-10-21T11:09:14.186Z,10.50
2018-10-21T11:11:41.562Z,9.47
2018-10-21T11:14:09.007Z,10.10
2018-10-21T11:16:36.404Z,8.77
2018-10-21T11:19:03.923Z,8.40
2018-10-21T11:21:31.349Z,7.93
2018-10-21T11:23:58.732Z,6.30
2018-10-21T11:26:26.657Z,6.77
2018-10-21T11:28:54.099Z,6.23
2018-10-21T11:31:21.482Z,6.10
2018-10-21T11:33:48.959Z,4.90
2018-10-21T11:36:16.377Z,4.80
2018-10-21T11:38:43.817Z,4.50
2018-10-21T11:41:11.259Z,5.40
2018-10-21T11:43:38.744Z,5.37
2018-10-21T11:46:06.253Z,5.77
2018-10-21T11:48:33.730Z,6.77
2018-10-21T11:51:01.207Z,6.03
2018-10-21T11:53:28.647Z,5.37
2018-10-21T11:55:56.054Z,4.90
2018-10-21T11:58:23.424Z,5.13
2018-10-21T12:00:50.944Z,4.50
2018-10-21T12:03:18.764Z,4.67
2018-10-21T12:05:46.205Z,4.77
2018-10-21T12:08:13.714Z,5.40
2018-10-21T12:10:41.199Z,4.50
2018-10-21T12:13:08.645Z,4.47
2018-10-21T12:15:36.754Z,4.93
2018-10-21T12:18:04.545Z,5.03
2018-10-21T12:20:32.003Z,5.47
2018-10-21T12:22:59.542Z,5.93
2018-10-21T12:25:26.970Z,4.83
2018-10-21T12:27:54.411Z,5.47
2018-10-21T12:30:21.803Z,5.93
2018-10-21T12:32:49.220Z,4.73
2018-10-21T12:35:16.732Z,5.50
2018-10-21T12:37:44.123Z,5.87
2018-10-21T12:40:11.629Z,5.97
2018-10-21T12:42:39.243Z,5.03
2018-10-21T12:45:08.303Z,5.53
2018-10-21T12:47:35.754Z,4.70
2018-10-21T12:50:03.288Z,5.58
2018-10-21T12:52:30.743Z,5.45
2018-10-21T12:54:58.274Z,5.73
2018-10-21T12:57:25.715Z,5.27
2018-10-21T12:59:53.143Z,5.00
2018-10-21T13:02:20.664Z,4.53
2018-10-21T13:04:48.043Z,4.90
2018-10-21T13:07:15.535Z,4.57
2018-10-21T13:09:42.925Z,4.07
2018-10-21T13:12:10.339Z,3.87
2018-10-21T13:14:37.786Z,4.10
2018-10-21T13:17:05.312Z,4.23
2018-10-21T13:19:32.861Z,4.27
2018-10-21T13:22:00.659Z,4.33
2018-10-21T13:24:28.155Z,4.10
2018-10-21T13:26:55.535Z,4.53
2018-10-21T13:29:23.019Z,3.90
2018-10-21T13:31:50.477Z,4.47
2018-10-21T13:34:18.037Z,4.80
2018-10-21T13:36:45.543Z,4.60
2018-10-21T13:39:14.093Z,4.87
2018-10-21T13:41:42.516Z,3.70
2018-10-21T13:44:10.284Z,3.93
2018-10-21T13:46:37.740Z,4.67
2018-10-21T13:49:05.373Z,4.07
2018-10-21T13:51:32.896Z,4.30
2018-10-21T13:54:00.400Z,4.80
2018-10-21T13:56:27.854Z,4.17
2018-10-21T13:58:56.205Z,4.03
2018-10-21T14:01:23.718Z,5.30
2018-10-21T14:03:51.148Z,5.90
2018-10-21T14:06:18.526Z,5.40
2018-10-21T14:08:46.013Z,4.00
2018-10-21T14:11:13.504Z,3.80
2018-10-21T14:13:40.925Z,3.87
2018-10-21T14:16:08.525Z,3.87
2018-10-21T14:18:35.994Z,3.37
2018-10-21T14:21:03.429Z,3.20
2018-10-21T14:23:31.061Z,3.47
2018-10-21T14:25:58.487Z,3.13
2018-10-21T14:28:25.997Z,3.07
2018-10-21T14:30:53.513Z,3.30
2018-10-21T14:33:21.133Z,3.87
2018-10-21T14:35:48.663Z,3.70
2018-10-21T14:38:16.167Z,3.40
2018-10-21T14:40:43.644Z,4.03
2018-10-21T14:43:11.108Z,4.10
2018-10-21T14:45:38.607Z,3.30
2018-10-21T14:48:06.108Z,2.80
2018-10-21T14:50:33.505Z,3.07
2018-10-21T14:53:01.008Z,3.00
2018-10-21T14:55:28.521Z,2.73
2018-10-21T14:57:55.984Z,2.60
2018-10-21T15:00:23.542Z,2.60
2018-10-21T15:02:50.935Z,2.43
2018-10-21T15:05:18.349Z,2.90
2018-10-21T15:07:46.273Z,3.10
2018-10-21T15:10:13.751Z,2.77
2018-10-21T15:12:41.153Z,2.60
2018-10-21T15:15:09.515Z,2.37
2018-10-21T15:17:37.036Z,2.50
2018-10-21T15:20:05.199Z,2.70
2018-10-21T15:22:32.604Z,3.27
2018-10-21T15:25:00.099Z,2.47
2018-10-21T15:27:27.555Z,2.70
2018-10-21T15:29:55.133Z,2.77
2018-10-21T15:32:22.543Z,3.33
2018-10-21T15:34:50.064Z,6.90
2018-10-21T15:37:17.425Z,4.10
2018-10-21T15:39:44.930Z,3.30
2018-10-21T15:42:12.309Z,2.93
2018-10-21T15:44:39.729Z,3.30
2018-10-21T15:47:07.243Z,3.40
2018-10-21T15:49:34.698Z,3.27
2018-10-21T15:52:02.327Z,2.83
2018-10-21T15:54:30.255Z,3.30
2018-10-21T15:56:57.724Z,3.03
2018-10-21T15:59:25.194Z,3.97
2018-10-21T16:01:52.645Z,3.10
2018-10-21T16:04:20.069Z,3.27
2018-10-21T16:06:47.551Z,4.40
2018-10-21T16:09:19.609Z,3.97
2018-10-21T16:11:55.552Z,3.60
2018-10-21T16:14:23.214Z,3.57
2018-10-21T16:16:50.695Z,3.37
2018-10-21T16:19:18.130Z,3.30
2018-10-21T16:21:45.644Z,5.00
2018-10-21T16:24:13.045Z,7.37
2018-10-21T16:26:40.529Z,5.47
2018-10-21T16:29:07.924Z,4.60
2018-10-21T16:31:35.371Z,4.67
2018-10-21T16:34:02.940Z,4.70
2018-10-21T16:36:30.427Z,4.50
2018-10-21T16:38:57.847Z,4.50
2018-10-21T16:41:27.757Z,4.83
2018-10-21T16:43:55.286Z,4.77
2018-10-21T16:46:22.831Z,4.80
2018-10-21T16:48:50.295Z,4.70
2018-10-21T16:51:17.735Z,5.10
2018-10-21T16:53:45.185Z,4.73
2018-10-21T16:56:12.624Z,5.00
2018-10-21T16:58:40.041Z,4.50
2018-10-21T17:01:07.985Z,5.10
2018-10-21T17:03:35.324Z,4.90
2018-10-21T17:06:02.779Z,5.20
2018-10-21T17:08:30.305Z,5.40
2018-10-21T17:10:57.811Z,6.47
2018-10-21T17:13:25.181Z,6.30
2018-10-21T17:15:52.630Z,7.33
2018-10-21T17:18:20.196Z,7.50
2018-10-21T17:20:47.645Z,7.70
2018-10-21T17:23:15.141Z,8.43
2018-10-21T17:25:42.609Z,8.00
2018-10-21T17:28:10.124Z,8.07
2018-10-21T17:30:37.561Z,7.90
2018-10-21T17:33:05.011Z,16.20
2018-10-21T17:35:32.510Z,19.77
2018-10-21T17:37:59.922Z,17.43
2018-10-21T17:40:27.426Z,14.57
2018-10-21T17:42:54.932Z,13.20
2018-10-21T17:45:22.445Z,14.60
2018-10-21T17:47:49.898Z,17.43
2018-10-21T17:50:17.406Z,17.90
2018-10-21T17:52:44.862Z,24.43
2018-10-21T17:55:12.704Z,26.23
2018-10-21T17:57:40.186Z,32.10
2018-10-21T18:00:09.219Z,28.17
2018-10-21T18:02:36.850Z,26.00
2018-10-21T18:05:06.381Z,24.57
2018-10-21T18:07:33.901Z,30.07
2018-10-21T18:10:01.371Z,34.90
2018-10-21T18:12:28.837Z,37.10
2018-10-21T18:14:56.292Z,47.33
2018-10-21T18:17:23.820Z,45.70
2018-10-21T18:19:51.280Z,34.57
2018-10-21T18:22:18.809Z,38.33
2018-10-21T18:24:46.194Z,38.47
2018-10-21T18:27:13.665Z,39.20
2018-10-21T18:29:41.107Z,37.53
2018-10-21T18:32:08.789Z,25.60
2018-10-21T18:34:36.239Z,23.83
2018-10-21T18:37:03.747Z,23.17
2018-10-21T18:39:31.234Z,20.80
2018-10-21T18:41:58.681Z,21.63
2018-10-21T18:44:26.211Z,21.03
2018-10-21T18:46:53.661Z,20.77
2018-10-21T18:49:21.157Z,18.87
2018-10-21T18:51:48.601Z,19.80
2018-10-21T18:54:16.105Z,18.23
2018-10-21T18:56:44.055Z,17.00
2018-10-21T18:59:11.517Z,15.27
2018-10-21T19:01:53.221Z,14.83
2018-10-21T19:04:20.775Z,18.43
2018-10-21T19:06:48.290Z,22.20
2018-10-21T19:09:19.382Z,25.83
2018-10-21T19:11:47.261Z,26.90
2018-10-21T19:14:14.856Z,25.57
2018-10-21T19:16:42.277Z,25.60
2018-10-21T19:19:09.939Z,19.50
2018-10-21T19:21:37.641Z,14.73
2018-10-21T19:24:05.170Z,13.17
2018-10-21T19:26:32.696Z,11.77
2018-10-21T19:29:00.146Z,18.33
2018-10-21T19:31:27.622Z,19.80
2018-10-21T19:33:55.129Z,21.40
2018-10-21T19:36:22.530Z,23.63
2018-10-21T19:38:49.943Z,23.03
2018-10-21T19:41:17.420Z,19.83
2018-10-21T19:43:44.905Z,16.73
2018-10-21T19:46:12.416Z,16.90
2018-10-21T19:48:39.835Z,17.90
2018-10-21T19:51:07.277Z,16.93
2018-10-21T19:53:34.756Z,15.33
2018-10-21T19:56:02.201Z,14.10
2018-10-21T19:58:29.758Z,13.57
2018-10-21T20:00:57.219Z,12.80
2018-10-21T20:03:24.703Z,12.27
2018-10-21T20:05:52.200Z,13.47
2018-10-21T20:08:19.657Z,16.53
2018-10-21T20:10:47.096Z,16.50
2018-10-21T20:13:14.583Z,18.40
2018-10-21T20:15:41.989Z,21.03
2018-10-21T20:18:09.462Z,20.63
2018-10-21T20:20:36.952Z,24.63
2018-10-21T20:23:04.982Z,25.70
2018-10-21T20:25:32.376Z,22.57
2018-10-21T20:27:59.864Z,21.80
2018-10-21T20:30:27.281Z,17.87
2018-10-21T20:32:54.782Z,15.90
2018-10-21T20:35:22.152Z,17.57
2018-10-21T20:37:49.598Z,17.30
2018-10-21T20:40:17.198Z,16.10
2018-10-21T20:42:44.515Z,14.90
2018-10-21T20:45:12.775Z,14.77
2018-10-21T20:47:41.051Z,14.80
2018-10-21T20:50:08.581Z,13.67
2018-10-21T20:52:36.475Z,13.73
2018-10-21T20:55:04.946Z,13.37
2018-10-21T20:57:32.808Z,10.53
2018-10-21T21:00:00.538Z,10.13
2018-10-21T21:02:28.620Z,9.70
2018-10-21T21:04:56.550Z,8.97
2018-10-21T21:07:24.172Z,9.20
2018-10-21T21:09:51.739Z,8.07
2018-10-21T21:12:19.759Z,9.13
2018-10-21T21:14:50.125Z,8.53
2018-10-21T21:17:18.241Z,9.23
2018-10-21T21:19:50.340Z,9.27
2018-10-21T21:22:17.971Z,11.57
2018-10-21T21:24:45.325Z,10.17
2018-10-21T21:27:12.763Z,10.33
2018-10-21T21:29:40.196Z,9.73
2018-10-21T21:32:07.613Z,8.20
2018-10-21T21:34:35.067Z,8.47
2018-10-21T21:37:02.560Z,8.87
2018-10-21T21:39:29.911Z,9.53
2018-10-21T21:41:57.363Z,9.77
2018-10-21T21:44:24.794Z,9.67
2018-10-21T21:46:52.165Z,9.57
2018-10-21T21:49:19.571Z,9.17
2018-10-21T21:51:46.997Z,10.07
2018-10-21T21:54:15.377Z,10.40
2018-10-21T21:56:44.516Z,10.13
2018-10-21T21:59:11.990Z,10.33
2018-10-21T22:01:39.465Z,10.60
2018-10-21T22:04:07.336Z,10.73
2018-10-21T22:06:34.827Z,9.70
2018-10-21T22:09:02.339Z,9.33
2018-10-21T22:11:29.786Z,8.87
2018-10-21T22:13:57.197Z,8.10
2018-10-21T22:16:24.634Z,7.67
2018-10-21T22:18:52.105Z,8.30
2018-10-21T22:21:19.510Z,8.30
2018-10-21T22:23:46.913Z,6.80
2018-10-21T22:26:14.317Z,6.90
2018-10-21T22:28:41.746Z,6.97
2018-10-21T22:31:09.167Z,6.37
2018-10-21T22:33:36.569Z,6.60
2018-10-21T22:36:04.029Z,6.47
2018-10-21T22:38:31.420Z,7.03
2018-10-21T22:40:58.811Z,6.30
2018-10-21T22:43:26.296Z,6.00
2018-10-21T22:45:53.749Z,6.27
2018-10-21T22:48:21.185Z,6.40
2018-10-21T22:50:48.596Z,6.53
2018-10-21T22:53:16.042Z,6.80
2018-10-21T22:55:43.468Z,7.90
2018-10-21T22:58:10.870Z,7.47
2018-10-21T23:00:38.274Z,7.37
2018-10-21T23:03:05.713Z,7.30
2018-10-21T23:05:33.158Z,7.60
2018-10-21T23:08:00.566Z,7.73
2018-10-21T23:10:27.944Z,7.87
2018-10-21T23:12:55.394Z,7.67
2018-10-21T23:15:22.815Z,9.63
2018-10-21T23:17:50.221Z,9.53
2018-10-21T23:20:17.674Z,10.10
2018-10-21T23:22:45.076Z,10.60
2018-10-21T23:25:12.437Z,9.53
2018-10-21T23:27:39.839Z,9.40
2018-10-21T23:30:07.532Z,10.47
2018-10-21T23:32:34.962Z,10.50
2018-10-21T23:35:02.413Z,8.87
2018-10-21T23:37:29.827Z,8.10
2018-10-21T23:39:57.277Z,7.80
2018-10-21T23:42:24.653Z,7.33
2018-10-21T23:44:52.114Z,7.27
2018-10-21T23:47:19.530Z,6.97
2018-10-21T23:49:46.917Z,7.63
2018-10-21T23:52:14.301Z,7.70
2018-10-21T23:54:41.726Z,8.13
2018-10-21T23:57:09.134Z,7.60
2018-10-21T23:59:36.918Z,8.07
